Time;durP1;ratioP1;P1;durP2;ratioP2;P2;SDS_P1;SDS_P2;PMS_P1;PMS_P2;Temp;Humidity;BMP_temperature;BMP_pressure;BME280_temperature;BME280_humidity;BME280_pressure;Samples;Min_cycle;Max_cycle;Signal;HPM_P1;HPM_P2
2023/11/21 00:00:48;;;;;;;19.42;11.45;;;;;;;7.60;81.17;92212.63;2061189;69;20150;-79
2023/11/21 00:03:15;;;;;;;18.08;11.13;;;;;;;7.68;80.85;92214.50;2061016;69;20154;-83
2023/11/21 00:05:43;;;;;;;13.98;9.32;;;;;;;7.82;80.10;92215.41;2061347;69;20133;-78
2023/11/21 00:08:10;;;;;;;16.80;10.90;;;;;;;7.64;79.74;92212.91;2061416;69;20149;-81
2023/11/21 00:10:38;;;;;;;19.45;11.15;;;;;;;7.38;81.72;92214.78;2061300;69;20160;-83
2023/11/21 00:13:05;;;;;;;19.42;10.77;;;;;;;7.60;81.23;92223.13;2060717;69;20145;-79
2023/11/21 00:15:32;;;;;;;16.92;10.75;;;;;;;7.70;80.48;92203.41;2061265;69;20571;-82
2023/11/21 00:18:00;;;;;;;15.20;10.10;;;;;;;7.71;79.93;92224.50;2060481;69;20608;-81
2023/11/21 00:20:25;;;;;;;17.10;10.57;;;;;;;7.68;80.41;92204.03;2063702;69;20152;-80
2023/11/21 00:22:52;;;;;;;14.88;10.13;;;;;;;7.54;79.92;92161.84;2064140;69;20157;-78
2023/11/21 00:25:18;;;;;;;13.75;9.32;;;;;;;7.74;80.30;92198.06;2064609;69;20145;-80
2023/11/21 00:27:45;;;;;;;14.68;8.93;;;;;;;7.77;80.18;92199.66;2064538;69;20198;-80
2023/11/21 00:30:13;;;;;;;12.55;8.30;;;;;;;7.80;79.55;92204.06;2064364;69;20634;-79
2023/11/21 00:32:40;;;;;;;13.68;9.10;;;;;;;7.83;80.06;92200.81;2061471;69;20149;-79
2023/11/21 00:35:05;;;;;;;13.68;9.65;;;;;;;7.79;79.61;92188.56;2064700;69;20592;-82
2023/11/21 00:37:33;;;;;;;14.85;9.35;;;;;;;7.87;79.79;92194.69;2064837;69;20605;-79
2023/11/21 00:39:58;;;;;;;14.38;8.80;;;;;;;7.82;79.33;92196.50;2065217;69;20155;-81
2023/11/21 00:42:24;;;;;;;16.30;11.00;;;;;;;7.30;82.10;92205.84;2061189;69;20132;-80
2023/11/21 00:44:50;;;;;;;16.65;9.93;;;;;;;7.57;81.46;92199.84;2064570;69;20161;-79
2023/11/21 00:47:16;;;;;;;16.67;10.18;;;;;;;7.71;80.29;92207.69;2061448;69;20144;-80
2023/11/21 00:49:42;;;;;;;16.67;10.38;;;;;;;7.46;80.13;92177.41;2066007;69;20195;-81
2023/11/21 00:52:08;;;;;;;14.50;9.80;;;;;;;7.70;79.96;92212.56;2058857;69;20149;-81
2023/11/21 00:54:34;;;;;;;16.45;9.93;;;;;;;7.73;80.01;92205.75;2061698;69;20144;-81
2023/11/21 00:56:59;;;;;;;13.90;9.32;;;;;;;7.66;80.35;92211.59;2061393;69;20144;-81
2023/11/21 00:59:25;;;;;;;14.13;9.18;;;;;;;7.62;80.07;92203.66;2061364;69;20219;-82
2023/11/21 01:01:51;;;;;;;10.50;7.10;;;;;;;7.54;80.04;92206.66;2063986;69;20152;-81
2023/11/21 01:04:17;;;;;;;9.38;5.88;;;;;;;7.30;79.25;92191.84;2061912;69;20149;-79
2023/11/21 01:06:47;;;;;;;9.52;6.30;;;;;;;7.33;79.64;92215.09;2061328;69;20189;-81
2023/11/21 01:09:18;;;;;;;6.35;4.75;;;;;;;7.46;79.14;92205.41;2061114;69;20169;-80
2023/11/21 01:11:44;;;;;;;7.28;4.50;;;;;;;7.26;78.83;92176.84;2060986;69;20145;-79
2023/11/21 01:14:10;;;;;;;6.45;4.38;;;;;;;7.47;78.68;92192.88;2064330;69;20153;-81
2023/11/21 01:16:36;;;;;;;8.60;5.30;;;;;;;7.32;78.90;92199.63;2060949;69;20134;-83
2023/11/21 01:22:51;;;;;;;13.80;9.07;;;;;;;7.31;79.99;92193.31;2063892;69;20112;-83
2023/11/21 01:25:18;;;;;;;11.43;8.18;;;;;;;7.47;79.54;92190.81;2060234;69;20157;-83
2023/11/21 01:27:45;;;;;;;15.93;8.60;;;;;;;7.49;79.38;92195.81;2061184;69;20159;-79
2023/11/21 01:30:14;;;;;;;12.18;8.20;;;;;;;7.50;78.81;92197.28;2061510;69;20224;-79
2023/11/21 01:32:48;;;;;;;15.65;8.50;;;;;;;7.49;79.03;92193.75;2064810;69;20311;-78
2023/11/21 01:35:22;;;;;;;12.93;8.20;;;;;;;7.52;78.89;92192.53;2058842;69;20176;-82
2023/11/21 01:37:48;;;;;;;14.77;8.68;;;;;;;7.31;80.02;92186.97;2061320;69;20242;-83
2023/11/21 01:40:14;;;;;;;13.93;8.45;;;;;;;7.41;79.93;92192.47;2061025;69;20207;-81
2023/11/21 01:42:43;;;;;;;12.15;8.25;;;;;;;7.31;79.42;92184.16;2067547;69;20649;-80
2023/11/21 01:45:12;;;;;;;11.30;8.23;;;;;;;7.39;79.63;92198.69;2065399;69;20587;-81
2023/11/21 01:47:39;;;;;;;12.95;8.32;;;;;;;7.45;79.64;92198.34;2061344;69;20149;-81
2023/11/21 01:50:07;;;;;;;10.70;7.90;;;;;;;7.46;79.32;92199.81;2061170;69;20137;-78
2023/11/21 01:52:35;;;;;;;12.30;7.25;;;;;;;7.44;79.63;92202.50;2064360;69;20596;-79
2023/11/21 01:55:00;;;;;;;13.27;8.70;;;;;;;7.41;79.53;92209.28;2064249;69;20140;-83
2023/11/21 01:57:27;;;;;;;12.38;8.25;;;;;;;7.43;79.77;92218.56;2061051;69;20145;-80
2023/11/21 01:59:54;;;;;;;12.63;7.95;;;;;;;7.43;79.81;92220.63;2058288;69;20203;-84
2023/11/21 02:02:26;;;;;;;14.88;8.23;;;;;;;7.45;79.79;92223.56;2061102;69;20137;-83
2023/11/21 02:04:53;;;;;;;12.55;8.43;;;;;;;7.46;79.96;92217.34;2064546;69;20156;-80
2023/11/21 02:07:19;;;;;;;11.77;7.82;;;;;;;7.51;79.87;92215.53;2060958;69;20185;-79
2023/11/21 02:09:45;;;;;;;13.93;8.00;;;;;;;7.54;79.37;92209.47;2064536;69;20156;-82
2023/11/21 02:12:10;;;;;;;11.43;8.13;;;;;;;7.48;79.39;92194.34;2061142;69;20691;-79
2023/11/21 02:14:36;;;;;;;13.60;7.55;;;;;;;7.55;79.32;92207.38;2061106;69;20136;-80
2023/11/21 02:17:03;;;;;;;9.27;6.75;;;;;;;7.35;79.90;92201.97;2061321;69;20164;-81
2023/11/21 02:19:32;;;;;;;11.63;7.70;;;;;;;7.29;80.25;92209.97;2061219;69;20203;-81
2023/11/21 02:22:00;;;;;;;12.43;7.65;;;;;;;7.45;79.88;92199.06;2060873;69;20161;-81
2023/11/21 02:24:27;;;;;;;12.68;7.78;;;;;;;7.48;79.96;92200.69;2061444;69;20555;-81
2023/11/21 02:26:52;;;;;;;13.32;7.88;;;;;;;7.43;80.17;92203.84;2060893;69;20176;-80
2023/11/21 02:29:30;;;;;;;12.05;7.85;;;;;;;7.42;79.80;92189.06;2060892;69;20173;-80
2023/11/21 02:31:56;;;;;;;12.38;7.65;;;;;;;7.47;79.84;92190.81;2064549;69;20163;-78
2023/11/21 02:34:24;;;;;;;11.23;7.80;;;;;;;7.43;80.13;92187.75;2061484;69;20527;-83
2023/11/21 02:36:51;;;;;;;9.80;6.88;;;;;;;7.39;79.66;92179.09;2058881;69;20608;-83
2023/11/21 02:39:17;;;;;;;10.15;6.78;;;;;;;7.38;79.91;92181.16;2064676;69;20639;-85
2023/11/21 02:41:44;;;;;;;9.88;6.57;;;;;;;7.39;79.55;92177.03;2064998;69;20238;-80
2023/11/21 02:44:10;;;;;;;13.20;6.93;;;;;;;7.34;79.41;92172.50;2061504;69;20152;-81
2023/11/21 02:46:36;;;;;;;11.40;7.00;;;;;;;7.05;80.15;92164.34;2064856;69;20149;-80
2023/11/21 02:49:11;;;;;;;16.60;9.27;;;;;;;7.22;79.73;92177.31;2064986;69;20141;-79
2023/11/21 02:51:37;;;;;;;11.27;6.20;;;;;;;7.21;79.67;92178.66;2064831;69;20631;-83
2023/11/21 02:54:06;;;;;;;7.72;5.80;;;;;;;7.17;79.82;92164.41;2061498;69;20239;-84
2023/11/21 02:56:33;;;;;;;9.05;6.10;;;;;;;7.19;79.00;92164.50;2061345;69;20218;-81
2023/11/21 02:59:00;;;;;;;14.30;7.80;;;;;;;6.97;80.61;92175.03;2064879;69;20180;-81
2023/11/21 03:01:27;;;;;;;14.52;8.38;;;;;;;6.85;81.01;92163.75;2061679;69;20689;-82
2023/11/21 03:03:53;;;;;;;12.43;7.10;;;;;;;6.96;80.55;92167.94;2065164;69;20256;-82
2023/11/21 03:06:19;;;;;;;11.27;7.15;;;;;;;6.79;81.05;92166.16;2065134;69;20589;-79
2023/11/21 03:08:46;;;;;;;10.60;7.05;;;;;;;6.74;81.10;92163.69;2065021;69;20148;-78
2023/11/21 03:11:12;;;;;;;9.93;7.07;;;;;;;6.92;80.65;92172.53;2064873;69;20161;-83
2023/11/21 03:13:41;;;;;;;10.85;7.97;;;;;;;6.91;80.57;92165.47;2062229;69;20539;-79
2023/11/21 03:16:09;;;;;;;13.90;8.05;;;;;;;6.88;80.60;92159.75;2067738;69;20190;-82
2023/11/21 03:18:34;;;;;;;13.35;6.20;;;;;;;6.91;80.30;92157.81;2062545;69;20152;-82
2023/11/21 03:21:00;;;;;;;11.90;6.70;;;;;;;6.80;80.59;92150.09;2061760;69;20164;-78
2023/11/21 03:23:26;;;;;;;10.15;6.75;;;;;;;6.87;80.24;92163.16;2061586;69;20334;-80
2023/11/21 03:25:51;;;;;;;11.27;6.75;;;;;;;6.76;80.29;92152.63;2064777;69;20159;-81
2023/11/21 03:28:18;;;;;;;11.13;7.53;;;;;;;6.83;80.92;92162.91;2064895;69;20523;-82
2023/11/21 03:30:46;;;;;;;10.20;6.60;;;;;;;6.85;80.91;92160.94;2064869;69;20210;-82
2023/11/21 03:33:12;;;;;;;11.48;7.00;;;;;;;6.93;80.42;92165.63;2061702;69;20174;-81
2023/11/21 03:35:38;;;;;;;10.40;6.45;;;;;;;7.00;79.36;92168.19;2065194;69;20199;-81
2023/11/21 03:38:05;;;;;;;10.07;6.05;;;;;;;6.96;79.94;92167.22;2062035;69;20204;-80
2023/11/21 03:40:31;;;;;;;13.00;7.13;;;;;;;6.82;80.72;92161.41;2061369;69;20244;-80
2023/11/21 03:42:57;;;;;;;9.43;6.20;;;;;;;6.97;80.13;92163.81;2061967;69;20144;-80
2023/11/21 03:45:24;;;;;;;9.70;6.10;;;;;;;6.98;80.19;92154.09;2065110;69;20137;-77
2023/11/21 03:47:51;;;;;;;10.15;6.80;;;;;;;6.87;80.76;92163.91;2065111;69;20156;-82
2023/11/21 03:50:19;;;;;;;10.02;6.15;;;;;;;6.94;80.31;92172.69;2061935;69;20133;-79
2023/11/21 03:52:45;;;;;;;8.75;6.22;;;;;;;6.70;81.74;92178.16;2065071;69;20515;-83
2023/11/21 03:55:10;;;;;;;10.63;6.65;;;;;;;6.86;80.84;92172.88;2061596;69;20166;-84
2023/11/21 03:57:39;;;;;;;10.82;6.20;;;;;;;6.89;80.51;92168.88;2061550;69;20151;-79
2023/11/21 04:00:08;;;;;;;11.10;7.38;;;;;;;6.76;81.09;92169.41;2061417;69;20149;-80
2023/11/21 04:02:37;;;;;;;27.58;17.50;;;;;;;6.82;80.59;92167.75;2065012;69;20231;-78
2023/11/21 04:05:04;;;;;;;18.23;11.38;;;;;;;6.81;80.30;92162.75;2064820;69;20125;-79
2023/11/21 04:07:30;;;;;;;11.73;7.40;;;;;;;6.79;80.04;92157.03;2064861;69;20257;-83
2023/11/21 04:09:56;;;;;;;11.63;7.15;;;;;;;6.81;80.39;92162.75;2061642;69;20141;-79
2023/11/21 04:12:23;;;;;;;12.30;6.50;;;;;;;6.25;83.29;92169.56;2064728;69;20133;-79
2023/11/21 04:14:50;;;;;;;12.38;6.50;;;;;;;6.40;82.73;92164.94;2064910;69;20149;-81
2023/11/21 04:20:48;;;;;;;13.25;6.50;;;;;;;6.67;81.62;92167.41;2124126;64;20193;-82
2023/11/21 04:23:15;;;;;;;9.82;5.63;;;;;;;6.63;81.37;92159.50;2044019;70;20151;-81
2023/11/21 04:25:40;;;;;;;8.70;6.05;;;;;;;6.58;80.95;92146.56;2044076;70;20624;-81
2023/11/21 04:28:06;;;;;;;9.48;5.80;;;;;;;6.63;80.70;92157.41;2047184;70;20154;-81
2023/11/21 04:30:32;;;;;;;7.50;5.28;;;;;;;6.68;80.32;92161.22;2047472;70;20628;-81
2023/11/21 04:32:58;;;;;;;15.95;7.50;;;;;;;6.53;81.25;92162.34;2047569;70;20636;-81
2023/11/21 04:35:24;;;;;;;10.05;6.30;;;;;;;6.52;81.33;92152.50;2047414;70;20698;-81
2023/11/21 04:37:50;;;;;;;8.90;5.50;;;;;;;6.58;81.19;92152.16;2047477;70;20595;-81
2023/11/21 04:40:16;;;;;;;10.02;6.10;;;;;;;6.58;80.80;92141.69;2047532;70;20153;-80
2023/11/21 04:42:43;;;;;;;9.05;5.78;;;;;;;6.70;80.42;92155.78;2047353;70;20151;-80
2023/11/21 04:45:11;;;;;;;10.50;5.85;;;;;;;6.68;80.41;92150.03;2047541;70;20882;-81
2023/11/21 04:47:37;;;;;;;10.60;7.82;;;;;;;6.25;82.71;92144.41;2044556;70;20158;-81
2023/11/21 04:50:04;;;;;;;14.95;7.70;;;;;;;6.39;82.63;92157.88;2050359;70;20141;-79
2023/11/21 04:52:30;;;;;;;11.38;7.65;;;;;;;6.46;81.86;92146.50;2050268;70;20601;-80
2023/11/21 04:54:58;;;;;;;10.77;7.30;;;;;;;6.61;81.86;92159.38;2050451;70;20237;-80
2023/11/21 04:57:23;;;;;;;10.35;7.30;;;;;;;6.65;81.64;92161.69;2050243;70;20143;-81
2023/11/21 04:59:50;;;;;;;11.65;7.15;;;;;;;6.66;81.29;92157.56;2050603;70;20183;-81
2023/11/21 05:02:16;;;;;;;16.30;7.25;;;;;;;6.66;81.53;92163.16;2050822;70;20154;-80
2023/11/21 05:04:42;;;;;;;11.95;7.47;;;;;;;6.71;81.50;92160.03;2050552;70;20148;-81
2023/11/21 05:07:09;;;;;;;9.95;7.07;;;;;;;6.62;81.83;92158.75;2050321;70;20154;-81
2023/11/21 05:09:35;;;;;;;9.43;6.50;;;;;;;6.68;81.70;92166.81;2050423;70;20209;-81
2023/11/21 05:12:01;;;;;;;18.75;11.10;;;;;;;6.73;81.26;92165.00;2047675;70;20154;-81
2023/11/21 05:14:27;;;;;;;14.68;9.43;;;;;;;6.81;80.94;92162.75;2051005;70;20169;-81
2023/11/21 05:16:53;;;;;;;9.60;7.35;;;;;;;6.73;81.11;92148.97;2047798;70;20138;-82
2023/11/21 05:19:18;;;;;;;11.70;7.45;;;;;;;6.73;81.19;92165.00;2047735;70;20122;-82
2023/11/21 05:21:44;;;;;;;11.60;6.90;;;;;;;6.73;81.24;92151.75;2050889;70;20142;-82
2023/11/21 05:24:10;;;;;;;9.40;6.15;;;;;;;6.70;81.26;92158.56;2050865;70;20201;-81
2023/11/21 05:26:35;;;;;;;12.00;6.05;;;;;;;6.75;80.92;92157.50;2051040;70;20151;-81
2023/11/21 05:29:01;;;;;;;12.25;7.25;;;;;;;6.78;81.21;92155.56;2050947;70;20142;-82
2023/11/21 05:31:26;;;;;;;13.80;8.85;;;;;;;6.82;80.95;92153.03;2050946;70;20146;-82
2023/11/21 05:33:53;;;;;;;10.77;7.13;;;;;;;6.77;81.06;92163.22;2047785;70;20585;-81
2023/11/21 05:36:18;;;;;;;9.80;6.35;;;;;;;6.77;81.12;92168.81;2050913;70;20141;-82
2023/11/21 05:38:44;;;;;;;9.00;5.45;;;;;;;6.74;81.43;92158.09;2050783;70;20626;-82
2023/11/21 05:41:13;;;;;;;8.98;5.68;;;;;;;6.72;81.34;92158.69;2050800;70;20139;-82
2023/11/21 05:43:39;;;;;;;11.32;7.68;;;;;;;6.62;81.96;92164.34;2050915;70;20614;-82
2023/11/21 05:46:08;;;;;;;13.05;7.60;;;;;;;6.51;81.81;92162.22;2050966;70;20162;-82
2023/11/21 05:48:36;;;;;;;12.18;7.43;;;;;;;6.35;83.15;92167.44;2050858;70;20226;-82
2023/11/21 05:51:06;;;;;;;10.43;6.28;;;;;;;6.35;82.76;92147.16;2050852;70;20602;-82
2023/11/21 05:53:32;;;;;;;12.07;7.22;;;;;;;6.17;83.09;92165.47;2044863;70;20663;-82
2023/11/21 05:55:58;;;;;;;12.90;7.20;;;;;;;6.53;82.28;92170.72;2050876;70;20693;-81
2023/11/21 05:58:24;;;;;;;10.75;6.50;;;;;;;6.65;81.93;92175.69;2050888;70;20142;-81
2023/11/21 06:00:50;;;;;;;11.70;7.95;;;;;;;6.69;81.45;92176.69;2047637;70;20633;-82
2023/11/21 06:03:17;;;;;;;11.82;7.18;;;;;;;6.68;81.56;92164.00;2051074;70;20614;-81
2023/11/21 06:05:43;;;;;;;10.15;6.15;;;;;;;6.62;81.63;92183.94;2051156;70;20138;-82
2023/11/21 06:08:10;;;;;;;11.77;7.63;;;;;;;6.27;82.93;92172.47;2050923;70;20648;-82
2023/11/21 06:10:36;;;;;;;10.88;7.20;;;;;;;6.53;82.66;92179.13;2051331;70;20150;-82
2023/11/21 06:13:03;;;;;;;10.52;6.90;;;;;;;6.66;81.92;92183.47;2051462;70;20154;-81
2023/11/21 06:15:29;;;;;;;11.32;7.03;;;;;;;6.67;81.80;92178.59;2051362;70;20130;-81
2023/11/21 06:17:55;;;;;;;10.90;7.22;;;;;;;6.70;81.49;92186.53;2048049;70;20154;-81
2023/11/21 06:20:22;;;;;;;11.65;6.47;;;;;;;6.74;81.51;92188.88;2051363;70;20609;-81
2023/11/21 06:22:52;;;;;;;12.40;6.93;;;;;;;6.68;81.68;92185.66;2051101;70;20163;-82
2023/11/21 06:25:18;;;;;;;9.73;6.38;;;;;;;6.69;81.18;92190.69;2051454;70;20174;-82
2023/11/21 06:27:46;;;;;;;11.55;6.78;;;;;;;6.60;81.26;92180.28;2051275;70;20566;-82
2023/11/21 06:30:13;;;;;;;12.20;6.53;;;;;;;6.49;82.30;92186.50;2051313;70;20162;-81
2023/11/21 06:32:45;;;;;;;10.98;7.05;;;;;;;6.55;82.15;92182.06;2051201;70;20549;-81
2023/11/21 06:35:11;;;;;;;16.50;9.38;;;;;;;6.54;81.48;92171.47;2051266;70;20154;-81
2023/11/21 06:37:37;;;;;;;16.75;10.07;;;;;;;6.64;81.19;92183.31;2047923;70;20146;-82
2023/11/21 06:40:04;;;;;;;23.77;12.98;;;;;;;6.40;82.73;92178.91;2048656;70;20602;-82
2023/11/21 06:42:30;;;;;;;19.17;11.15;;;;;;;6.45;82.11;92183.44;2051303;70;20150;-82
2023/11/21 06:44:58;;;;;;;14.77;8.02;;;;;;;6.35;82.32;92167.44;2051255;70;20154;-82
2023/11/21 06:47:25;;;;;;;13.35;8.48;;;;;;;6.60;81.89;92185.88;2051209;70;20151;-82
2023/11/21 06:49:51;;;;;;;16.40;9.98;;;;;;;6.64;81.63;92177.72;2047885;70;20162;-82
2023/11/21 06:52:18;;;;;;;17.75;8.82;;;;;;;6.57;82.08;92181.47;2051098;70;20246;-82
2023/11/21 06:54:43;;;;;;;9.88;6.80;;;;;;;6.43;82.66;92186.09;2051383;70;20278;-82
2023/11/21 06:57:09;;;;;;;12.07;7.82;;;;;;;6.60;82.21;92191.47;2051291;70;20241;-82
2023/11/21 06:59:35;;;;;;;35.22;18.35;;;;;;;6.68;81.69;92196.84;2051225;70;20290;-81
2023/11/21 07:02:01;;;;;;;38.30;17.48;;;;;;;6.73;81.72;92195.78;2051118;70;20147;-81
2023/11/21 07:04:26;;;;;;;23.70;14.00;;;;;;;6.75;81.63;92193.88;2051230;70;20141;-82
2023/11/21 07:06:56;;;;;;;20.77;11.82;;;;;;;6.80;81.98;92195.59;2047852;70;20134;-81
2023/11/21 07:09:22;;;;;;;18.05;10.57;;;;;;;6.88;80.74;92201.72;2051272;70;20154;-81
2023/11/21 07:11:50;;;;;;;13.88;8.52;;;;;;;6.69;81.92;92201.09;2051283;70;20170;-82
2023/11/21 07:14:16;;;;;;;17.70;10.32;;;;;;;6.80;81.42;92206.78;2051244;70;20154;-82
2023/11/21 07:16:42;;;;;;;22.30;14.45;;;;;;;6.76;82.41;92212.13;2047898;70;20143;-82
2023/11/21 07:19:08;;;;;;;26.92;12.95;;;;;;;6.82;81.90;92214.56;2047824;70;20177;-81
2023/11/21 07:21:35;;;;;;;19.65;12.30;;;;;;;6.81;81.72;92199.13;2047757;70;20597;-82
2023/11/21 07:24:04;;;;;;;18.67;11.25;;;;;;;6.94;82.35;92218.19;2051076;70;20189;-82
2023/11/21 07:26:30;;;;;;;21.75;12.48;;;;;;;6.93;81.36;92225.13;2051183;70;20510;-82
2023/11/21 07:28:56;;;;;;;20.73;11.82;;;;;;;7.06;81.59;92223.88;2047906;70;20149;-82
2023/11/21 07:31:22;;;;;;;31.90;20.67;;;;;;;6.98;82.02;92215.66;2051085;70;20154;-82
2023/11/21 07:33:48;;;;;;;27.83;17.17;;;;;;;7.11;81.00;92206.72;2051011;70;20173;-82
2023/11/21 07:36:15;;;;;;;21.80;14.00;;;;;;;7.26;80.90;92208.38;2050965;70;20533;-82
2023/11/21 07:38:42;;;;;;;20.73;13.95;;;;;;;7.42;80.36;92224.75;2051020;70;20149;-82
2023/11/21 07:41:08;;;;;;;23.55;13.35;;;;;;;7.43;80.21;92217.84;2051193;70;20176;-82
2023/11/21 07:43:35;;;;;;;23.80;13.05;;;;;;;7.32;80.11;92219.22;2051039;70;20130;-82
2023/11/21 07:46:04;;;;;;;23.60;13.65;;;;;;;7.34;80.20;92222.19;2051018;70;20158;-82
2023/11/21 07:48:31;;;;;;;27.42;17.33;;;;;;;7.01;82.52;92222.09;2051043;70;20518;-82
2023/11/21 07:51:00;;;;;;;31.75;20.60;;;;;;;7.21;81.62;92226.25;2051322;70;20150;-82
2023/11/21 07:53:28;;;;;;;30.33;18.45;;;;;;;7.27;81.38;92231.50;2047830;70;20158;-83
2023/11/21 07:55:54;;;;;;;28.40;17.45;;;;;;;6.95;82.92;92219.66;2047842;70;20142;-82
2023/11/21 07:58:20;;;;;;;16.58;10.65;;;;;;;7.30;81.32;92216.31;2051081;70;20154;-82
2023/11/21 08:00:46;;;;;;;15.50;10.05;;;;;;;7.39;81.17;92224.63;2051070;70;20142;-86
2023/11/21 08:03:16;;;;;;;17.08;11.70;;;;;;;7.60;80.66;92229.44;2047914;70;20229;-82
2023/11/21 08:05:42;;;;;;;14.90;9.63;;;;;;;7.66;80.32;92229.13;2051147;70;20192;-82
2023/11/21 08:08:08;;;;;;;15.80;9.18;;;;;;;7.63;80.09;92233.13;2047867;70;20264;-81
2023/11/21 08:10:35;;;;;;;11.43;7.82;;;;;;;7.62;79.67;92231.66;2051251;70;20294;-81
2023/11/21 08:13:01;;;;;;;16.30;9.98;;;;;;;7.28;80.47;92233.69;2051068;70;20168;-80
2023/11/21 08:15:32;;;;;;;14.88;9.52;;;;;;;7.31;81.42;92240.91;2051186;70;20151;-83
2023/11/21 08:18:01;;;;;;;14.68;8.45;;;;;;;7.31;81.64;92237.38;2051004;70;20174;-80
2023/11/21 08:20:26;;;;;;;18.05;11.10;;;;;;;7.36;81.45;92233.50;2051275;70;20510;-82
2023/11/21 08:22:52;;;;;;;14.10;9.50;;;;;;;7.18;81.43;92235.09;2050839;70;20610;-80
2023/11/21 08:25:19;;;;;;;14.85;8.98;;;;;;;7.45;80.57;92241.09;2051129;70;20178;-81
2023/11/21 08:27:46;;;;;;;14.50;8.65;;;;;;;7.68;79.87;92234.13;2050992;70;20152;-81
2023/11/21 08:30:13;;;;;;;12.90;7.90;;;;;;;7.95;79.18;92228.84;2051070;70;20151;-81
2023/11/21 08:32:40;;;;;;;16.40;10.07;;;;;;;7.75;78.19;92241.59;2050955;70;20149;-81
2023/11/21 08:35:08;;;;;;;16.05;9.05;;;;;;;7.97;77.82;92240.19;2047731;70;20138;-81
2023/11/21 08:37:37;;;;;;;15.80;9.27;;;;;;;7.94;77.01;92229.44;2050934;70;20159;-81
2023/11/21 08:40:04;;;;;;;14.20;9.80;;;;;;;7.89;77.38;92240.41;2051058;70;20141;-81
2023/11/21 08:42:29;;;;;;;15.10;9.25;;;;;;;7.92;76.36;92234.91;2051139;70;20225;-81
2023/11/21 08:44:57;;;;;;;15.10;9.30;;;;;;;8.18;75.44;92242.16;2050962;70;20166;-81
2023/11/21 08:47:24;;;;;;;28.27;15.82;;;;;;;8.00;76.47;92236.16;2050923;70;20146;-80
2023/11/21 08:49:52;;;;;;;18.10;11.50;;;;;;;8.24;76.36;92236.19;2050917;70;20141;-81
2023/11/21 08:52:22;;;;;;;13.85;9.32;;;;;;;8.18;76.42;92244.25;2050804;70;20333;-80
2023/11/21 08:54:55;;;;;;;13.48;8.50;;;;;;;8.35;75.47;92246.72;2050932;70;20173;-79
2023/11/21 08:57:25;;;;;;;16.67;8.85;;;;;;;8.34;74.61;92239.66;2050879;70;20150;-79
2023/11/21 08:59:55;;;;;;;11.10;6.75;;;;;;;8.11;74.92;92238.28;2051151;70;20238;-79
2023/11/21 09:02:23;;;;;;;13.63;7.72;;;;;;;8.17;75.42;92231.56;2050892;70;20245;-81
2023/11/21 09:04:50;;;;;;;13.00;7.88;;;;;;;8.46;75.04;92243.22;2050859;70;20173;-81
2023/11/21 09:07:16;;;;;;;10.95;7.75;;;;;;;8.67;74.51;92236.03;2050801;70;20142;-80
2023/11/21 09:09:41;;;;;;;11.93;8.13;;;;;;;8.85;74.35;92232.25;2050856;70;20142;-82
2023/11/21 09:12:07;;;;;;;11.82;8.38;;;;;;;8.76;73.24;92237.97;2050913;70;20193;-81
2023/11/21 09:14:33;;;;;;;12.43;8.52;;;;;;;8.98;72.92;92249.78;2050930;70;20523;-80
2023/11/21 09:16:59;;;;;;;15.38;8.25;;;;;;;9.07;72.73;92251.72;2050851;70;20151;-82
2023/11/21 09:19:24;;;;;;;11.68;7.53;;;;;;;8.99;71.89;92246.38;2047563;70;20158;-81
2023/11/21 09:21:50;;;;;;;13.45;8.55;;;;;;;9.10;73.48;92248.44;2046957;70;20599;-82
2023/11/21 09:24:16;;;;;;;14.45;7.90;;;;;;;9.25;73.03;92252.78;2047637;70;20246;-82
2023/11/21 09:26:41;;;;;;;13.85;9.05;;;;;;;9.29;72.01;92250.22;2047561;70;20138;-82
2023/11/21 09:29:08;;;;;;;14.52;9.13;;;;;;;9.52;71.95;92245.88;2047699;70;20483;-82
2023/11/21 09:31:33;;;;;;;14.27;8.73;;;;;;;9.83;72.49;92249.06;2047792;70;20309;-82
2023/11/21 09:33:59;;;;;;;13.38;8.90;;;;;;;10.01;70.03;92240.94;2047598;70;20182;-81
2023/11/21 09:36:27;;;;;;;13.48;8.32;;;;;;;10.22;70.91;92242.78;2044349;70;20216;-82
2023/11/21 09:38:55;;;;;;;11.80;8.38;;;;;;;10.32;69.67;92246.19;2047421;70;20674;-82
2023/11/21 09:41:30;;;;;;;12.93;8.80;;;;;;;10.41;68.64;92244.53;2047619;70;20286;-82
2023/11/21 09:43:59;;;;;;;14.35;9.60;;;;;;;10.19;69.39;92235.59;2047412;70;20142;-82
2023/11/21 09:46:27;;;;;;;14.27;9.25;;;;;;;10.05;68.36;92232.72;2047623;70;20158;-82
2023/11/21 09:48:55;;;;;;;24.95;11.05;;;;;;;9.71;69.26;92237.13;2047570;70;20147;-82
2023/11/21 09:51:27;;;;;;;18.60;10.75;;;;;;;9.73;70.43;92231.66;2047554;70;20143;-83
2023/11/21 09:53:52;;;;;;;13.98;8.30;;;;;;;9.95;69.06;92237.06;2044131;70;20222;-82
2023/11/21 09:56:23;;;;;;;15.90;9.05;;;;;;;10.31;67.96;92229.91;2048764;70;20546;-81
2023/11/21 09:58:53;;;;;;;15.95;8.80;;;;;;;9.45;69.55;92233.59;2047635;70;20225;-82
2023/11/21 10:01:21;;;;;;;17.70;10.20;;;;;;;9.56;69.45;92232.06;2047771;70;20153;-82
2023/11/21 10:03:47;;;;;;;16.75;9.30;;;;;;;9.83;68.44;92226.59;2044271;70;20241;-83
2023/11/21 10:06:14;;;;;;;9.45;6.90;;;;;;;9.92;68.16;92236.94;2048750;70;20142;-81
2023/11/21 10:08:40;;;;;;;10.73;6.60;;;;;;;9.93;68.59;92234.84;2047534;70;20151;-82
2023/11/21 10:11:11;;;;;;;10.60;7.10;;;;;;;9.78;68.64;92227.72;2048280;70;20252;-83
2023/11/21 10:13:38;;;;;;;12.48;6.95;;;;;;;9.78;68.27;92224.19;2048164;70;20222;-82
2023/11/21 10:16:07;;;;;;;10.90;6.60;;;;;;;9.91;68.05;92224.22;2047521;70;20141;-83
2023/11/21 10:18:34;;;;;;;12.20;7.20;;;;;;;10.14;68.17;92206.50;2047622;70;20151;-83
2023/11/21 10:21:00;;;;;;;12.35;7.78;;;;;;;9.88;67.96;92227.53;2044336;70;20135;-82
2023/11/21 10:23:27;;;;;;;12.85;8.00;;;;;;;9.75;69.43;92220.50;2050703;70;20146;-82
2023/11/21 10:25:54;;;;;;;10.63;7.47;;;;;;;9.72;67.89;92215.41;2050749;70;20237;-82
2023/11/21 10:28:20;;;;;;;12.00;7.60;;;;;;;9.78;68.46;92213.66;2050670;70;20251;-82
2023/11/21 10:30:47;;;;;;;12.20;8.13;;;;;;;9.80;68.76;92213.75;2050818;70;20480;-80
2023/11/21 10:33:12;;;;;;;10.85;7.93;;;;;;;9.92;68.74;92206.00;2050716;70;20603;-81
2023/11/21 10:35:53;;;;;;;12.18;8.07;;;;;;;10.23;67.98;92215.38;2050552;70;20240;-81
2023/11/21 10:38:21;;;;;;;13.48;8.40;;;;;;;9.92;67.71;92208.81;2050631;70;20166;-82
2023/11/21 10:40:49;;;;;;;16.17;9.93;;;;;;;10.01;68.04;92214.91;2050915;70;20491;-82
2023/11/21 10:43:15;;;;;;;14.10;9.18;;;;;;;9.12;69.61;92214.88;2050688;70;20138;-81
2023/11/21 10:45:42;;;;;;;16.40;9.32;;;;;;;9.45;69.85;92213.91;2050755;70;20237;-81
2023/11/21 10:48:12;;;;;;;13.38;9.23;;;;;;;10.02;68.80;92211.47;2050637;70;20170;-82
2023/11/21 10:50:38;;;;;;;11.98;7.60;;;;;;;9.47;68.17;92218.91;2050751;70;20142;-81
2023/11/21 10:53:04;;;;;;;12.05;8.13;;;;;;;9.63;69.22;92220.56;2050548;70;20142;-81
2023/11/21 10:55:31;;;;;;;12.40;8.77;;;;;;;10.12;67.83;92208.47;2050925;70;20150;-82
2023/11/21 10:58:02;;;;;;;14.52;9.45;;;;;;;10.31;68.00;92207.38;2051302;70;20150;-80
2023/11/21 11:00:28;;;;;;;17.13;10.73;;;;;;;10.24;67.19;92200.72;2051311;70;20146;-82
2023/11/21 11:02:55;;;;;;;13.50;8.90;;;;;;;9.69;68.16;92197.69;2051221;70;20161;-84
2023/11/21 11:05:25;;;;;;;10.70;7.78;;;;;;;10.30;68.18;92189.06;2051237;70;20253;-82
2023/11/21 11:08:12;;;;;;;11.70;6.75;;;;;;;10.39;67.51;92205.75;2051058;70;20169;-81
2023/11/21 11:10:39;;;;;;;13.07;6.47;;;;;;;10.08;66.65;92194.94;2051010;70;20170;-82
2023/11/21 11:13:07;;;;;;;9.88;6.53;;;;;;;9.65;67.94;92198.19;2047876;70;20213;-81
2023/11/21 11:15:33;;;;;;;7.95;5.25;;;;;;;9.40;68.58;92187.66;2051158;70;20151;-81
2023/11/21 11:17:59;;;;;;;6.85;4.95;;;;;;;9.43;68.30;92189.22;2051076;70;20226;-82
2023/11/21 11:20:30;;;;;;;8.02;5.07;;;;;;;9.73;67.12;92189.50;2051139;70;20242;-82
2023/11/21 11:23:13;;;;;;;8.77;5.10;;;;;;;9.48;68.61;92178.22;2049746;70;20173;-82
2023/11/21 11:26:44;;;;;;;7.22;5.22;;;;;;;9.49;67.95;92183.25;2051224;70;20169;-82
2023/11/21 11:29:31;;;;;;;8.38;5.47;;;;;;;9.74;67.28;92176.88;2051640;70;20336;-82
2023/11/21 11:32:04;;;;;;;8.98;5.85;;;;;;;9.41;67.72;92188.41;2044634;70;20523;-82
2023/11/21 11:34:54;;;;;;;13.73;7.75;;;;;;;9.19;68.42;92182.25;2050603;70;20138;-82
2023/11/21 11:37:22;;;;;;;8.15;5.45;;;;;;;9.13;68.95;92179.09;2049110;70;20157;-82
2023/11/21 11:39:49;;;;;;;16.35;9.23;;;;;;;9.40;68.89;92184.13;2051159;70;20618;-82